createdAt,value
2023-05-10T00:01:38.941Z,12.3
2023-05-10T00:11:35.849Z,12.3
2023-05-10T00:21:35.328Z,12.4
2023-05-10T00:31:35.149Z,12.3
2023-05-10T00:41:35.477Z,12.3
2023-05-10T00:51:35.068Z,12.2
2023-05-10T01:01:35.049Z,12.2
2023-05-10T01:11:35.165Z,12.2
2023-05-10T01:21:35.357Z,12.2
2023-05-10T01:31:35.328Z,12.2
2023-05-10T01:41:35.153Z,12.2
2023-05-10T01:51:35.364Z,12.1
2023-05-10T02:01:34.981Z,12.2
2023-05-10T02:11:35.087Z,12.2
2023-05-10T02:21:35.651Z,12.2
2023-05-10T02:31:35.607Z,12.2
2023-05-10T02:41:35.484Z,12.2
2023-05-10T02:51:35.042Z,12.2
2023-05-10T03:01:35.148Z,12.2
2023-05-10T03:11:34.998Z,12.3
2023-05-10T03:21:34.989Z,12.3
2023-05-10T03:31:35.060Z,12.4
2023-05-10T03:41:35.021Z,12.5
2023-05-10T03:51:35.135Z,12.5
2023-05-10T04:01:35.032Z,12.5
2023-05-10T04:11:35.188Z,12.5
2023-05-10T04:21:35.252Z,12.5
2023-05-10T04:31:35.007Z,12.5
2023-05-10T04:41:35.036Z,12.5
2023-05-10T04:51:35.898Z,12.5
2023-05-10T05:01:35.094Z,12.6
2023-05-10T05:11:35.090Z,12.6
2023-05-10T05:21:35.188Z,12.6
2023-05-10T05:31:35.037Z,12.5
2023-05-10T05:41:35.539Z,12.5
2023-05-10T05:51:35.050Z,12.5
2023-05-10T06:01:35.528Z,12.5
2023-05-10T06:11:35.228Z,12.5
2023-05-10T06:21:35.167Z,12.6
2023-05-10T06:31:35.112Z,12.6
2023-05-10T06:41:35.187Z,12.7
2023-05-10T06:51:35.506Z,12.6
2023-05-10T07:01:35.051Z,12.6
2023-05-10T07:11:34.967Z,12.6
2023-05-10T07:21:35.282Z,12.7
2023-05-10T07:31:35.036Z,12.7
2023-05-10T07:41:36.005Z,12.7
2023-05-10T07:51:35.565Z,12.7
2023-05-10T08:01:35.200Z,12.7
2023-05-10T08:11:35.374Z,12.9
2023-05-10T08:21:35.021Z,13.2
2023-05-10T08:31:35.008Z,13.2
2023-05-10T08:41:35.138Z,13.3
2023-05-10T08:51:35.194Z,13.6
2023-05-10T09:01:35.005Z,13.8
2023-05-10T09:11:34.985Z,14.1
2023-05-10T09:21:35.051Z,13.9
2023-05-10T09:31:35.067Z,14.2
2023-05-10T09:41:34.975Z,14.1
2023-05-10T09:51:36.650Z,13.7
2023-05-10T10:01:35.635Z,13.6
2023-05-10T10:11:35.029Z,13.7
2023-05-10T10:21:35.150Z,14.0
2023-05-10T10:31:35.089Z,14.1
2023-05-10T10:41:35.000Z,14.2
2023-05-10T10:51:34.978Z,14.1
2023-05-10T11:01:35.031Z,14.1
2023-05-10T11:11:35.236Z,14.1
2023-05-10T11:21:35.042Z,14.3
2023-05-10T11:31:35.054Z,14.3
2023-05-10T11:41:35.043Z,14.8
2023-05-10T11:51:35.187Z,15.3
2023-05-10T12:01:35.022Z,16.1
2023-05-10T12:11:35.024Z,16.2
2023-05-10T12:21:34.989Z,16.1
2023-05-10T12:31:35.061Z,16.1
2023-05-10T12:41:35.091Z,15.8
2023-05-10T12:51:35.110Z,15.9
2023-05-10T13:01:35.617Z,16.0
2023-05-10T13:11:35.069Z,16.0
2023-05-10T13:21:35.655Z,15.7
2023-05-10T13:31:35.136Z,15.6
2023-05-10T13:41:35.551Z,15.6
2023-05-10T13:51:35.180Z,15.8
2023-05-10T14:01:35.093Z,16.1
2023-05-10T14:11:35.106Z,16.1
2023-05-10T14:21:35.387Z,16.4
2023-05-10T14:31:35.018Z,16.4
2023-05-10T14:41:35.095Z,16.4
2023-05-10T14:51:35.448Z,16.7
2023-05-10T15:01:35.254Z,16.6
2023-05-10T15:11:35.067Z,16.6
2023-05-10T15:21:35.292Z,16.8
2023-05-10T15:31:36.195Z,16.8
2023-05-10T15:41:36.569Z,16.8
2023-05-10T15:51:36.766Z,16.6
2023-05-10T16:01:35.971Z,16.5
2023-05-10T16:11:36.658Z,16.6
2023-05-10T16:21:35.167Z,16.3
2023-05-10T16:31:35.356Z,16.2
2023-05-10T16:41:35.156Z,16.0
2023-05-10T16:51:35.178Z,15.6
2023-05-10T17:01:35.588Z,15.2
2023-05-10T17:11:35.079Z,14.8
2023-05-10T17:21:35.144Z,14.7
2023-05-10T17:31:35.240Z,14.9
2023-05-10T17:41:35.124Z,14.7
2023-05-10T17:51:35.106Z,14.5
2023-05-10T18:01:35.113Z,14.4
2023-05-10T18:11:35.802Z,14.3
2023-05-10T18:21:35.120Z,14.1
2023-05-10T18:31:35.341Z,14.0
2023-05-10T18:41:35.294Z,13.9
2023-05-10T18:51:35.814Z,13.8
2023-05-10T19:01:35.159Z,13.6
2023-05-10T19:11:35.162Z,13.6
2023-05-10T19:21:35.060Z,13.4
2023-05-10T19:31:35.265Z,13.2
2023-05-10T19:41:35.087Z,13.2
2023-05-10T19:51:35.054Z,13.0
2023-05-10T20:01:35.511Z,12.7
2023-05-10T20:11:35.153Z,12.6
2023-05-10T20:21:35.489Z,12.4
2023-05-10T20:31:35.601Z,12.3
2023-05-10T20:41:35.279Z,12.3
2023-05-10T20:51:35.551Z,12.5
2023-05-10T21:01:35.351Z,12.4
2023-05-10T21:11:36.182Z,12.5
2023-05-10T21:21:35.342Z,12.6
2023-05-10T21:31:35.170Z,12.5
2023-05-10T21:41:35.931Z,12.5
2023-05-10T21:51:35.673Z,12.3
2023-05-10T22:01:35.372Z,12.2
2023-05-10T22:11:35.273Z,12.1
2023-05-10T22:21:35.464Z,12.1
2023-05-10T22:31:35.847Z,12.1
2023-05-10T22:41:35.450Z,12.1
2023-05-10T22:51:35.335Z,12.2
2023-05-10T23:01:36.653Z,12.3
2023-05-10T23:11:35.940Z,12.4
2023-05-10T23:21:35.736Z,12.4
2023-05-10T23:31:38.620Z,12.4
2023-05-10T23:41:36.720Z,12.4
2023-05-10T23:51:38.845Z,12.4
